Time;durP1;ratioP1;P1;durP2;ratioP2;P2;SDS_P1;SDS_P2;PMS_P1;PMS_P2;Temp;Humidity;BMP_temperature;BMP_pressure;BME280_temperature;BME280_humidity;BME280_pressure;Samples;Min_cycle;Max_cycle;Signal;HPM_P1;HPM_P2
2021/03/14 00:00:55;;;;;;;9.02;2.17;;;23.00;90.40;;;;;;5072926;28;20028;-70
2021/03/14 00:03:25;;;;;;;7.50;1.85;;;23.00;90.30;;;;;;5072557;28;20029;-63
2021/03/14 00:05:53;;;;;;;8.35;2.63;;;23.00;90.40;;;;;;5071898;28;20510;-64
2021/03/14 00:08:23;;;;;;;6.55;2.00;;;23.00;90.40;;;;;;5072543;28;20016;-63
2021/03/14 00:10:52;;;;;;;5.53;2.33;;;23.00;90.30;;;;;;5072553;28;20097;-65
2021/03/14 00:13:23;;;;;;;8.23;2.60;;;23.00;90.30;;;;;;5069860;28;20387;-66
2021/03/14 00:15:51;;;;;;;8.40;2.30;;;23.00;90.40;;;;;;5072117;28;20055;-67
2021/03/14 00:18:20;;;;;;;8.30;2.05;;;23.00;90.30;;;;;;5071998;28;20040;-68
2021/03/14 00:20:51;;;;;;;5.35;2.10;;;22.90;90.30;;;;;;5072214;28;20475;-64
2021/03/14 00:23:18;;;;;;;7.68;2.42;;;22.90;90.30;;;;;;5072616;28;20017;-62
2021/03/14 00:25:47;;;;;;;10.77;2.72;;;22.90;90.40;;;;;;5070939;28;20368;-70
2021/03/14 00:28:16;;;;;;;10.00;2.55;;;22.90;90.50;;;;;;5071629;28;20042;-60
2021/03/14 00:30:48;;;;;;;7.82;2.63;;;22.90;90.60;;;;;;5059052;28;20064;-63
2021/03/14 00:33:28;;;;;;;9.80;3.25;;;22.90;90.60;;;;;;5071018;28;20051;-64
2021/03/14 00:35:55;;;;;;;9.45;2.90;;;22.90;90.80;;;;;;5070431;28;20029;-62
2021/03/14 00:38:25;;;;;;;9.98;2.55;;;22.90;90.60;;;;;;5068975;28;20020;-58
2021/03/14 00:40:53;;;;;;;9.05;2.25;;;22.90;90.50;;;;;;5067016;28;20035;-56
2021/03/14 00:43:21;;;;;;;7.45;2.70;;;22.90;90.50;;;;;;5069774;28;20074;-54
2021/03/14 00:45:48;;;;;;;9.32;2.42;;;22.90;90.50;;;;;;5069403;28;20028;-67
2021/03/14 00:48:16;;;;;;;10.52;2.80;;;22.90;90.40;;;;;;5068780;28;20103;-61
2021/03/14 00:50:44;;;;;;;5.85;2.20;;;22.90;90.40;;;;;;5065447;28;20032;-62
2021/03/14 00:53:11;;;;;;;7.45;2.13;;;22.80;90.40;;;;;;5069167;28;20032;-60
2021/03/14 00:55:39;;;;;;;7.80;1.88;;;22.90;90.30;;;;;;5069140;28;20123;-59
2021/03/14 00:58:07;;;;;;;7.57;2.10;;;22.80;90.20;;;;;;5069269;28;20111;-51
2021/03/14 01:00:34;;;;;;;9.02;2.58;;;22.90;90.20;;;;;;5066641;28;20465;-61
2021/03/14 01:03:02;;;;;;;6.45;2.30;;;22.90;90.20;;;;;;5071267;28;20055;-65
2021/03/14 01:05:29;;;;;;;6.15;2.30;;;22.90;90.20;;;;;;5071500;28;20072;-71
2021/03/14 01:07:56;;;;;;;9.50;2.65;;;22.80;90.10;;;;;;5071734;28;20463;-61
2021/03/14 01:10:24;;;;;;;10.73;2.70;;;22.90;90.20;;;;;;5071846;28;20059;-64
2021/03/14 01:12:52;;;;;;;9.93;2.83;;;22.80;90.20;;;;;;5071352;28;20027;-56
2021/03/14 01:15:20;;;;;;;5.63;1.95;;;22.80;90.10;;;;;;5071045;28;20033;-61
2021/03/14 01:17:47;;;;;;;10.40;3.40;;;22.80;90.10;;;;;;5071236;28;20025;-58
2021/03/14 01:20:18;;;;;;;9.20;2.33;;;22.80;90.10;;;;;;5071525;28;20024;-59
2021/03/14 01:22:46;;;;;;;8.43;2.67;;;22.80;90.10;;;;;;5071476;28;20025;-63
2021/03/14 01:25:14;;;;;;;5.70;2.00;;;22.80;90.10;;;;;;5071295;28;20023;-57
2021/03/14 01:27:46;;;;;;;10.30;2.58;;;22.70;90.00;;;;;;5069747;28;20036;-60
2021/03/14 01:30:16;;;;;;;6.20;2.22;;;22.70;90.10;;;;;;5071607;28;20108;-64
2021/03/14 01:32:44;;;;;;;5.93;2.30;;;22.70;90.10;;;;;;5071027;28;20032;-64
2021/03/14 01:35:13;;;;;;;10.02;2.30;;;22.70;90.10;;;;;;5068925;28;20036;-63
2021/03/14 01:37:41;;;;;;;7.38;2.42;;;22.70;90.10;;;;;;5070911;28;20159;-67
2021/03/14 01:40:09;;;;;;;8.90;2.65;;;22.70;90.10;;;;;;5071085;28;20098;-64
2021/03/14 01:42:37;;;;;;;9.60;2.30;;;22.60;90.10;;;;;;5074030;28;20012;-60
2021/03/14 01:45:07;;;;;;;10.63;2.60;;;22.60;90.10;;;;;;5074637;28;20055;-52
2021/03/14 01:47:35;;;;;;;9.20;2.28;;;22.60;90.60;;;;;;5066956;28;20032;-63
2021/03/14 01:50:11;;;;;;;6.85;2.03;;;22.70;90.60;;;;;;5070906;28;20016;-64
2021/03/14 01:52:38;;;;;;;7.63;2.10;;;22.70;90.60;;;;;;5072437;28;20079;-70
2021/03/14 01:55:08;;;;;;;11.02;2.83;;;22.70;90.40;;;;;;5074515;28;20093;-62
2021/03/14 01:57:39;;;;;;;10.35;2.80;;;22.60;90.30;;;;;;5071184;28;20020;-65
2021/03/14 02:00:12;;;;;;;9.13;2.95;;;22.60;90.10;;;;;;5073854;28;20394;-70
2021/03/14 02:02:40;;;;;;;8.20;2.45;;;22.60;90.20;;;;;;5070708;28;20035;-65
2021/03/14 02:05:10;;;;;;;16.38;3.00;;;22.60;90.00;;;;;;5070766;28;20056;-47
2021/03/14 02:07:41;;;;;;;15.27;3.78;;;22.30;87.30;;;;;;5067542;28;20031;-52
2021/03/14 02:10:12;;;;;;;12.23;5.67;;;22.10;86.80;;;;;;5070872;28;20028;-59
2021/03/14 02:12:58;;;;;;;14.82;5.90;;;21.80;89.30;;;;;;5071328;28;20250;-54
2021/03/14 02:15:28;;;;;;;15.60;5.10;;;21.70;88.30;;;;;;5070514;28;20147;-54
2021/03/14 02:17:58;;;;;;;14.30;5.65;;;21.50;86.80;;;;;;5067557;28;20028;-57
2021/03/14 02:20:29;;;;;;;19.70;7.10;;;21.30;87.60;;;;;;5071670;28;20483;-54
2021/03/14 02:23:19;;;;;;;22.83;5.82;;;21.20;87.60;;;;;;5071246;28;20040;-63
2021/03/14 02:26:09;;;;;;;15.40;4.75;;;21.10;87.00;;;;;;5040902;28;20036;-57
2021/03/14 02:28:39;;;;;;;16.00;3.60;;;21.00;87.10;;;;;;5068045;28;20025;-60
2021/03/14 02:31:10;;;;;;;16.67;4.15;;;20.90;86.80;;;;;;5072854;28;20036;-72
2021/03/14 02:33:41;;;;;;;23.27;8.40;;;20.90;86.40;;;;;;5074596;28;20036;-75
2021/03/14 02:36:12;;;;;;;21.77;9.13;;;20.80;87.70;;;;;;5074412;28;20043;-74
2021/03/14 02:38:43;;;;;;;22.13;8.27;;;20.90;88.40;;;;;;5074729;28;20043;-72
2021/03/14 02:41:11;;;;;;;15.53;7.50;;;20.90;87.20;;;;;;5074483;28;20024;-69
2021/03/14 02:43:39;;;;;;;23.23;10.20;;;20.90;86.80;;;;;;5073313;28;20020;-64
2021/03/14 02:46:08;;;;;;;20.35;8.68;;;20.90;85.10;;;;;;5072913;28;20028;-71
2021/03/14 02:48:37;;;;;;;18.77;8.23;;;20.80;85.90;;;;;;5073438;28;20029;-74
2021/03/14 02:51:06;;;;;;;14.50;4.93;;;20.80;86.30;;;;;;5073680;28;20027;-62
2021/03/14 02:53:34;;;;;;;19.23;8.90;;;20.70;83.20;;;;;;5072597;28;20447;-64
2021/03/14 02:56:02;;;;;;;22.15;9.27;;;20.70;83.90;;;;;;5073586;28;20043;-71
2021/03/14 02:58:30;;;;;;;20.67;8.32;;;20.70;86.10;;;;;;5071629;28;20069;-65
2021/03/14 03:00:59;;;;;;;16.60;5.45;;;20.80;85.20;;;;;;5072687;28;20043;-57
2021/03/14 03:03:26;;;;;;;15.23;4.38;;;20.70;82.10;;;;;;5073173;28;20033;-67
2021/03/14 03:05:59;;;;;;;14.25;3.63;;;20.60;84.30;;;;;;5073099;28;20133;-64
2021/03/14 03:08:29;;;;;;;12.77;4.18;;;20.60;81.90;;;;;;5056009;28;20047;-61
2021/03/14 03:11:00;;;;;;;16.38;3.47;;;20.60;85.30;;;;;;5072017;28;20317;-63
2021/03/14 03:13:28;;;;;;;19.83;3.72;;;20.50;82.80;;;;;;5073882;28;20501;-65
2021/03/14 03:15:59;;;;;;;18.75;4.28;;;20.60;81.90;;;;;;5072770;28;20149;-63
2021/03/14 03:18:27;;;;;;;15.35;3.10;;;20.70;85.50;;;;;;5073667;28;20020;-70
2021/03/14 03:20:58;;;;;;;14.82;4.15;;;20.80;81.70;;;;;;5073820;28;20090;-73
2021/03/14 03:23:25;;;;;;;18.83;4.18;;;20.70;81.70;;;;;;5073313;28;20031;-61
2021/03/14 03:25:53;;;;;;;13.10;3.25;;;20.70;86.00;;;;;;5073111;28;20036;-71
2021/03/14 03:28:20;;;;;;;12.85;3.20;;;20.60;84.00;;;;;;5074175;28;20490;-68
2021/03/14 03:30:48;;;;;;;17.27;2.88;;;20.70;84.90;;;;;;5073365;28;20028;-70
2021/03/14 03:33:15;;;;;;;13.73;2.63;;;20.50;84.40;;;;;;5073417;28;20035;-69
2021/03/14 03:35:42;;;;;;;15.27;4.60;;;20.40;87.10;;;;;;5072815;28;20092;-67
2021/03/14 03:38:10;;;;;;;24.80;3.72;;;20.40;83.30;;;;;;5071473;28;20387;-57
2021/03/14 03:40:37;;;;;;;21.23;2.95;;;20.30;84.20;;;;;;5071856;28;20031;-73
2021/03/14 03:43:20;;;;;;;14.10;3.22;;;20.20;85.30;;;;;;5072751;28;20097;-68
2021/03/14 03:45:51;;;;;;;;;;;20.30;85.40;;;;;;5073031;28;20082;-72
2021/03/14 03:48:52;;;;;;;12.63;3.20;;;20.10;84.60;;;;;;5073349;28;19927;-66
2021/03/14 03:51:28;;;;;;;14.75;2.85;;;20.10;84.80;;;;;;5068957;28;20029;-72
2021/03/14 03:53:59;;;;;;;15.27;3.30;;;20.30;85.20;;;;;;5072202;28;20128;-60
2021/03/14 03:56:28;;;;;;;12.48;2.72;;;20.30;85.50;;;;;;5072285;28;20032;-59
2021/03/14 03:58:56;;;;;;;7.35;2.55;;;20.50;84.90;;;;;;5072134;28;20486;-51
2021/03/14 04:01:24;;;;;;;11.40;2.80;;;20.50;83.50;;;;;;5071523;28;20024;-55
2021/03/14 04:03:53;;;;;;;14.75;2.63;;;20.60;83.30;;;;;;5071073;28;20031;-55
2021/03/14 04:06:24;;;;;;;19.02;3.97;;;20.80;83.70;;;;;;5072699;28;20048;-54
2021/03/14 04:08:53;;;;;;;20.33;3.30;;;20.90;83.20;;;;;;5072872;28;20092;-58
2021/03/14 04:11:22;;;;;;;27.45;2.90;;;21.00;83.00;;;;;;5072260;28;20112;-55
2021/03/14 04:13:54;;;;;;;9.63;2.08;;;21.10;82.90;;;;;;5072573;28;20111;-59
2021/03/14 04:16:22;;;;;;;21.25;3.88;;;21.10;82.60;;;;;;5072971;28;20336;-52
2021/03/14 04:18:57;;;;;;;18.58;3.70;;;21.10;83.10;;;;;;5072466;28;20028;-58
2021/03/14 04:21:26;;;;;;;14.32;3.05;;;21.20;83.10;;;;;;5073023;28;20059;-55
2021/03/14 04:23:55;;;;;;;21.65;3.80;;;21.30;83.60;;;;;;5072850;28;20039;-59
2021/03/14 04:26:23;;;;;;;15.32;2.63;;;21.30;84.30;;;;;;5071007;28;20057;-52
2021/03/14 04:28:54;;;;;;;22.05;3.50;;;21.30;83.90;;;;;;5072741;28;20480;-54
2021/03/14 04:31:22;;;;;;;23.45;2.97;;;21.30;84.30;;;;;;5072102;28;20028;-49
2021/03/14 04:33:50;;;;;;;14.13;3.58;;;21.40;84.10;;;;;;5072522;28;20059;-57
2021/03/14 04:36:18;;;;;;;23.48;4.82;;;21.40;84.00;;;;;;5071529;28;20032;-51
2021/03/14 04:38:47;;;;;;;40.60;3.67;;;21.40;84.60;;;;;;5071268;28;20024;-55
2021/03/14 04:41:17;;;;;;;18.60;3.40;;;21.40;84.50;;;;;;5070382;28;20354;-61
2021/03/14 04:43:45;;;;;;;18.58;3.92;;;21.40;83.30;;;;;;5071288;28;20078;-56
2021/03/14 04:46:16;;;;;;;18.40;3.60;;;21.30;84.50;;;;;;5071259;28;20021;-56
2021/03/14 04:48:44;;;;;;;25.02;3.20;;;21.30;85.00;;;;;;5071423;28;20103;-54
2021/03/14 04:51:12;;;;;;;17.15;3.58;;;21.30;84.70;;;;;;5070917;28;20033;-58
2021/03/14 04:53:40;;;;;;;15.25;3.28;;;21.30;85.10;;;;;;5071065;28;20032;-60
2021/03/14 04:56:08;;;;;;;13.43;3.42;;;21.30;84.70;;;;;;5071165;28;20025;-60
2021/03/14 04:58:37;;;;;;;18.88;3.70;;;21.30;86.00;;;;;;5070924;28;20031;-58
2021/03/14 05:01:06;;;;;;;23.05;3.55;;;21.30;85.50;;;;;;5070716;28;20025;-59
2021/03/14 05:03:35;;;;;;;20.50;4.30;;;21.30;86.20;;;;;;5053055;28;20028;-55
2021/03/14 05:06:02;;;;;;;22.25;3.60;;;21.40;87.20;;;;;;5071231;28;20040;-60
2021/03/14 05:08:30;;;;;;;14.48;3.08;;;21.30;86.90;;;;;;5071248;28;20040;-61
2021/03/14 05:10:57;;;;;;;9.77;2.75;;;21.30;86.50;;;;;;5071151;28;20112;-65
2021/03/14 05:13:26;;;;;;;9.80;2.70;;;21.30;86.20;;;;;;5069388;28;20036;-69
2021/03/14 05:15:55;;;;;;;15.65;3.22;;;21.40;86.00;;;;;;5072576;28;20142;-69
2021/03/14 05:18:22;;;;;;;11.35;2.40;;;21.40;85.70;;;;;;5074927;28;20131;-70
2021/03/14 05:21:00;;;;;;;14.27;2.97;;;21.40;85.60;;;;;;5075560;28;20387;-64
2021/03/14 05:23:31;;;;;;;11.55;3.13;;;21.40;85.30;;;;;;5076174;28;20024;-55
2021/03/14 05:26:00;;;;;;;14.93;2.95;;;21.40;85.30;;;;;;5075622;28;20421;-58
2021/03/14 05:28:29;;;;;;;13.55;3.28;;;21.50;85.40;;;;;;5075636;28;20021;-59
2021/03/14 05:30:57;;;;;;;15.20;3.50;;;21.50;85.10;;;;;;5071208;28;20025;-65
2021/03/14 05:33:24;;;;;;;15.80;2.95;;;21.60;85.10;;;;;;5073517;28;20032;-60
2021/03/14 05:35:52;;;;;;;15.30;3.17;;;21.60;84.90;;;;;;5075431;28;20037;-57
2021/03/14 05:38:19;;;;;;;9.77;3.20;;;21.60;84.70;;;;;;5075041;28;20487;-73
2021/03/14 05:40:47;;;;;;;17.55;3.25;;;21.60;84.50;;;;;;5075218;28;20032;-68
2021/03/14 05:43:15;;;;;;;12.32;2.97;;;21.60;84.50;;;;;;5074531;28;20158;-63
2021/03/14 05:45:42;;;;;;;21.23;3.78;;;21.60;84.50;;;;;;5075098;28;20077;-68
2021/03/14 05:48:10;;;;;;;13.82;3.45;;;21.70;84.30;;;;;;5074729;28;20021;-72
2021/03/14 05:50:37;;;;;;;13.40;3.05;;;21.70;84.30;;;;;;5074826;28;20025;-63
2021/03/14 05:53:05;;;;;;;9.85;2.88;;;21.70;84.30;;;;;;5074486;28;20031;-61
2021/03/14 05:55:32;;;;;;;13.77;3.38;;;21.70;84.30;;;;;;5073359;28;20128;-56
2021/03/14 05:58:00;;;;;;;14.25;3.38;;;21.70;84.30;;;;;;5074783;28;20047;-67
2021/03/14 06:00:29;;;;;;;10.75;2.90;;;21.70;84.20;;;;;;5074318;28;20036;-60
2021/03/14 06:03:02;;;;;;;11.27;2.88;;;21.70;84.10;;;;;;5074198;28;20429;-68
2021/03/14 06:05:30;;;;;;;10.02;2.50;;;21.70;84.10;;;;;;5074320;28;20168;-65
2021/03/14 06:07:59;;;;;;;12.65;2.55;;;21.80;84.10;;;;;;5074463;28;20435;-70
2021/03/14 06:10:26;;;;;;;18.33;4.13;;;21.80;84.10;;;;;;5074335;28;20493;-67
2021/03/14 06:12:54;;;;;;;13.60;2.92;;;21.80;84.00;;;;;;5074064;28;20048;-60
2021/03/14 06:15:21;;;;;;;12.60;3.15;;;21.70;84.00;;;;;;5073838;28;20041;-65
2021/03/14 06:17:49;;;;;;;10.20;2.75;;;21.80;84.00;;;;;;5074321;28;20070;-67
2021/03/14 06:20:41;;;;;;;13.10;2.03;;;21.70;84.10;;;;;;5075023;28;20031;-64
2021/03/14 06:23:09;;;;;;;11.65;2.83;;;21.70;84.20;;;;;;5064129;28;20100;-61
2021/03/14 06:25:37;;;;;;;10.90;3.38;;;21.70;84.40;;;;;;5072585;28;20422;-57
2021/03/14 06:28:05;;;;;;;14.10;3.17;;;21.70;84.30;;;;;;5069114;28;20068;-63
2021/03/14 06:30:34;;;;;;;13.05;3.13;;;21.70;84.30;;;;;;5072440;28;20737;-68
2021/03/14 06:33:20;;;;;;;11.70;3.25;;;21.70;84.30;;;;;;5071136;28;20039;-63
2021/03/14 06:35:55;;;;;;;8.88;2.97;;;21.70;84.30;;;;;;5070027;28;20376;-59
2021/03/14 06:38:28;;;;;;;9.13;2.92;;;21.70;84.90;;;;;;5064891;28;20040;-53
2021/03/14 06:41:08;;;;;;;10.27;2.58;;;21.70;84.40;;;;;;5073492;28;20092;-56
2021/03/14 06:43:40;;;;;;;9.52;2.72;;;21.70;84.50;;;;;;5069185;28;20025;-53
2021/03/14 06:46:31;;;;;;;16.05;2.80;;;21.70;84.50;;;;;;5071163;28;20319;-59
2021/03/14 06:49:26;;;;;;;11.60;2.72;;;21.70;84.50;;;;;;5068458;28;20379;-57
2021/03/14 06:51:54;;;;;;;7.95;2.35;;;21.70;84.40;;;;;;5072398;28;20094;-56
2021/03/14 06:54:33;;;;;;;7.72;2.40;;;21.70;84.30;;;;;;5065010;28;20097;-57
2021/03/14 06:57:00;;;;;;;10.50;2.47;;;21.70;84.40;;;;;;5068017;28;20024;-54
2021/03/14 06:59:32;;;;;;;11.40;2.72;;;21.70;84.40;;;;;;5066820;28;20050;-58
2021/03/14 07:02:05;;;;;;;7.55;2.13;;;21.70;84.40;;;;;;5069622;28;20051;-55
2021/03/14 07:04:44;;;;;;;6.30;1.90;;;21.70;84.40;;;;;;5068902;28;20079;-53
2021/03/14 07:07:36;;;;;;;8.40;2.58;;;21.70;84.20;;;;;;5067580;28;20549;-59
2021/03/14 07:10:06;;;;;;;7.22;2.15;;;21.70;84.30;;;;;;5052346;28;20083;-55
2021/03/14 07:12:51;;;;;;;8.63;1.98;;;21.60;84.50;;;;;;5071055;28;20394;-53
2021/03/14 07:15:21;;;;;;;6.95;2.13;;;21.60;84.70;;;;;;5069132;28;20116;-51
2021/03/14 07:18:01;;;;;;;8.23;2.50;;;21.60;84.60;;;;;;5072993;28;20024;-55
2021/03/14 07:20:31;;;;;;;9.93;2.40;;;21.60;84.60;;;;;;5066545;28;20078;-55
2021/03/14 07:23:04;;;;;;;7.93;2.30;;;21.60;84.70;;;;;;5070270;28;20052;-55
2021/03/14 07:25:34;;;;;;;8.70;2.58;;;21.60;84.60;;;;;;5070205;28;20490;-56
2021/03/14 07:28:02;;;;;;;10.20;2.25;;;21.60;84.70;;;;;;5070597;28;20029;-53
2021/03/14 07:30:30;;;;;;;10.07;2.85;;;21.60;84.50;;;;;;5067228;28;20024;-56
2021/03/14 07:32:58;;;;;;;12.35;2.60;;;21.60;84.60;;;;;;5069926;28;20472;-53
2021/03/14 07:35:27;;;;;;;6.97;2.60;;;21.60;85.60;;;;;;5070516;28;20507;-59
2021/03/14 07:37:56;;;;;;;10.00;2.70;;;21.60;86.10;;;;;;5070374;28;20111;-54
2021/03/14 07:40:26;;;;;;;11.70;3.63;;;21.60;86.60;;;;;;5065985;28;20115;-55
2021/03/14 07:43:02;;;;;;;9.55;3.08;;;21.60;85.70;;;;;;5067948;28;20731;-55
2021/03/14 07:45:30;;;;;;;;;;;21.60;85.40;;;;;;5069599;28;20078;-58
2021/03/14 07:47:59;;;;;;;16.33;3.05;;;21.60;85.30;;;;;;5070995;28;19908;-53
2021/03/14 07:50:38;;;;;;;13.35;3.85;;;21.60;85.30;;;;;;5066464;28;20116;-60
2021/03/14 07:53:11;;;;;;;10.93;2.72;;;21.60;85.20;;;;;;5069717;28;20028;-53
2021/03/14 07:55:41;;;;;;;11.60;3.80;;;21.60;85.10;;;;;;5069874;28;20487;-59
2021/03/14 07:58:13;;;;;;;10.25;3.10;;;21.60;85.10;;;;;;5070552;28;20028;-62
2021/03/14 08:00:41;;;;;;;14.57;4.25;;;21.70;85.00;;;;;;5066701;28;20021;-66
2021/03/14 08:03:10;;;;;;;11.70;3.17;;;21.70;85.00;;;;;;5068886;28;20051;-67
2021/03/14 08:05:43;;;;;;;12.50;4.28;;;21.70;84.90;;;;;;5069012;28;20048;-66
2021/03/14 08:08:34;;;;;;;9.13;3.92;;;21.70;84.90;;;;;;5070279;28;20025;-63
2021/03/14 08:11:01;;;;;;;16.38;4.45;;;21.70;84.80;;;;;;5065925;28;20120;-65
2021/03/14 08:13:31;;;;;;;17.30;4.53;;;21.70;84.90;;;;;;5071381;28;20032;-68
2021/03/14 08:16:03;;;;;;;14.15;3.85;;;21.70;84.80;;;;;;5067583;28;20663;-62
2021/03/14 08:18:41;;;;;;;14.02;3.65;;;21.70;84.80;;;;;;5069486;28;20028;-69
2021/03/14 08:21:29;;;;;;;15.00;4.15;;;21.70;84.60;;;;;;5065913;28;20117;-62
2021/03/14 08:23:58;;;;;;;15.80;4.22;;;21.70;84.60;;;;;;5052547;28;20032;-63
2021/03/14 08:26:30;;;;;;;15.98;5.28;;;21.70;85.30;;;;;;5069480;28;20127;-70
2021/03/14 08:29:09;;;;;;;;;;;21.70;84.70;;;;;;5067865;28;20028;-67
2021/03/14 08:31:55;;;;;;;16.80;4.55;;;21.70;84.70;;;;;;5065143;28;20386;-69
2021/03/14 08:34:25;;;;;;;14.30;3.83;;;21.70;84.60;;;;;;5067976;28;20040;-68
2021/03/14 08:36:56;;;;;;;12.77;4.20;;;21.60;84.50;;;;;;5069545;28;20028;-67
2021/03/14 08:39:38;;;;;;;13.60;4.28;;;21.70;84.70;;;;;;5069285;28;20025;-65
2021/03/14 08:42:07;;;;;;;18.02;4.82;;;21.60;84.70;;;;;;5066680;28;20029;-67
2021/03/14 08:44:39;;;;;;;9.93;3.85;;;21.60;84.70;;;;;;5069323;28;20040;-62
2021/03/14 08:47:11;;;;;;;10.70;4.25;;;21.70;84.80;;;;;;5066209;28;20142;-64
2021/03/14 08:49:42;;;;;;;19.10;5.10;;;21.60;84.70;;;;;;5068866;28;20032;-60
2021/03/14 08:52:10;;;;;;;13.93;4.03;;;21.60;84.70;;;;;;5064226;28;20077;-57
2021/03/14 08:54:44;;;;;;;16.17;5.22;;;21.60;84.50;;;;;;5068133;28;20036;-61
2021/03/14 08:57:13;;;;;;;17.20;4.40;;;21.70;84.50;;;;;;5064320;28;20081;-62
2021/03/14 08:59:47;;;;;;;12.93;4.68;;;21.60;84.60;;;;;;5066117;28;20029;-59
2021/03/14 09:02:25;;;;;;;15.18;4.13;;;21.60;84.50;;;;;;5065037;28;20031;-53
2021/03/14 09:04:53;;;;;;;14.73;4.35;;;21.60;84.40;;;;;;5063856;28;20498;-56
2021/03/14 09:07:21;;;;;;;10.82;3.63;;;21.60;84.50;;;;;;5067861;28;20658;-54
2021/03/14 09:09:49;;;;;;;12.48;3.50;;;21.70;84.40;;;;;;5064400;28;20478;-54
2021/03/14 09:12:19;;;;;;;12.10;4.05;;;21.60;84.30;;;;;;5065487;28;20021;-57
2021/03/14 09:14:48;;;;;;;14.40;4.07;;;21.70;84.30;;;;;;5065321;28;20735;-61
2021/03/14 09:17:18;;;;;;;11.75;3.97;;;21.60;84.30;;;;;;5063674;28;20021;-54
2021/03/14 09:19:45;;;;;;;18.08;4.32;;;21.70;84.30;;;;;;5068043;28;20548;-56
2021/03/14 09:22:20;;;;;;;12.57;4.88;;;21.70;84.30;;;;;;5067362;28;20375;-61
2021/03/14 09:24:49;;;;;;;11.38;3.92;;;21.70;84.30;;;;;;5068796;28;20028;-52
2021/03/14 09:27:24;;;;;;;13.70;3.67;;;21.70;84.30;;;;;;5069166;28;20021;-56
2021/03/14 09:29:55;;;;;;;12.10;4.55;;;21.70;84.20;;;;;;5064058;28;20028;-60
2021/03/14 09:32:32;;;;;;;16.27;4.20;;;21.70;84.30;;;;;;5068328;28;20029;-61
2021/03/14 09:35:26;;;;;;;9.82;3.53;;;21.70;84.20;;;;;;5069360;28;20039;-61
2021/03/14 09:38:00;;;;;;;10.45;3.80;;;21.70;84.00;;;;;;5061429;28;20043;-55
2021/03/14 09:40:38;;;;;;;12.00;3.95;;;21.70;84.10;;;;;;5061971;28;20025;-59
2021/03/14 09:43:24;;;;;;;15.25;4.07;;;21.70;84.00;;;;;;5065699;28;20021;-57
2021/03/14 09:45:57;;;;;;;16.98;4.35;;;21.70;83.90;;;;;;5068986;28;20052;-55
2021/03/14 09:48:32;;;;;;;15.02;4.03;;;21.70;83.70;;;;;;5068097;28;20024;-54
2021/03/14 09:51:11;;;;;;;12.63;3.80;;;21.70;83.80;;;;;;5065369;28;20052;-55
2021/03/14 09:53:40;;;;;;;10.32;2.90;;;21.70;83.80;;;;;;5071284;28;20060;-60
2021/03/14 09:56:13;;;;;;;13.48;4.13;;;21.70;83.80;;;;;;5068272;28;20115;-60
2021/03/14 09:58:41;;;;;;;12.50;3.92;;;21.70;83.70;;;;;;5068751;28;20020;-53
2021/03/14 10:01:11;;;;;;;8.23;3.50;;;21.70;83.70;;;;;;5064769;28;20079;-60
2021/03/14 10:03:39;;;;;;;9.77;3.63;;;21.70;83.60;;;;;;5072008;28;20089;-56
2021/03/14 10:06:10;;;;;;;9.73;3.72;;;21.70;83.60;;;;;;5071904;28;20044;-56
2021/03/14 10:08:39;;;;;;;10.02;3.33;;;21.80;83.50;;;;;;5072463;28;20056;-60
2021/03/14 10:11:13;;;;;;;9.65;3.35;;;21.80;83.50;;;;;;5067835;28;20016;-58
2021/03/14 10:13:43;;;;;;;13.60;3.97;;;21.70;83.40;;;;;;5072035;28;20036;-57
2021/03/14 10:16:14;;;;;;;11.13;3.92;;;21.80;83.50;;;;;;5071634;28;20178;-54
2021/03/14 10:18:43;;;;;;;10.60;3.53;;;21.70;83.40;;;;;;5071373;28;20028;-62
2021/03/14 10:21:27;;;;;;;14.23;4.00;;;21.80;83.30;;;;;;5068632;28;20101;-57
2021/03/14 10:24:25;;;;;;;13.20;3.60;;;21.80;83.20;;;;;;5071431;28;20028;-61
2021/03/14 10:27:02;;;;;;;12.77;3.10;;;21.70;83.20;;;;;;5044867;28;20037;-56
2021/03/14 10:29:33;;;;;;;12.65;3.80;;;21.70;83.30;;;;;;5068917;28;20032;-56
2021/03/14 10:32:02;;;;;;;9.75;3.35;;;21.70;83.40;;;;;;5068700;28;20031;-56
2021/03/14 10:34:29;;;;;;;10.35;3.22;;;21.70;83.30;;;;;;5069550;28;20058;-53
2021/03/14 10:36:56;;;;;;;8.52;3.72;;;21.70;83.20;;;;;;5071123;28;20025;-54
2021/03/14 10:39:28;;;;;;;10.95;3.40;;;21.70;83.10;;;;;;5071818;28;20060;-56
2021/03/14 10:41:56;;;;;;;13.93;4.13;;;21.70;83.10;;;;;;5068565;28;20021;-53
2021/03/14 10:44:25;;;;;;;11.30;3.47;;;21.70;83.10;;;;;;5070808;28;20044;-51
2021/03/14 10:46:54;;;;;;;12.90;3.30;;;21.70;83.10;;;;;;5072149;28;20021;-57
2021/03/14 10:49:24;;;;;;;9.25;2.88;;;21.80;83.10;;;;;;5071590;28;20123;-58
2021/03/14 10:52:00;;;;;;;10.73;3.05;;;21.80;83.00;;;;;;5067102;28;20039;-51
2021/03/14 10:54:36;;;;;;;10.98;3.22;;;21.70;82.90;;;;;;5072685;28;20036;-56
2021/03/14 10:57:13;;;;;;;10.38;3.33;;;21.70;82.80;;;;;;5071406;28;20020;-60
2021/03/14 10:59:41;;;;;;;10.93;3.67;;;21.70;82.90;;;;;;5067305;28;20028;-55
2021/03/14 11:02:18;;;;;;;9.20;3.13;;;21.80;83.00;;;;;;5067072;28;20051;-56
2021/03/14 11:04:55;;;;;;;11.48;3.72;;;21.70;82.90;;;;;;5070216;28;20479;-66
2021/03/14 11:07:35;;;;;;;7.05;2.75;;;21.80;82.90;;;;;;5069464;28;20024;-62
2021/03/14 11:10:28;;;;;;;7.78;2.65;;;21.70;82.80;;;;;;5066045;28;20111;-65
2021/03/14 11:12:55;;;;;;;6.07;2.70;;;21.70;82.90;;;;;;5066113;28;20059;-61
2021/03/14 11:15:33;;;;;;;9.10;2.95;;;21.70;82.80;;;;;;5071689;28;20102;-56
2021/03/14 11:18:04;;;;;;;11.02;2.80;;;21.70;82.90;;;;;;5073193;28;20082;-55
2021/03/14 11:20:33;;;;;;;6.53;2.78;;;21.70;82.80;;;;;;5073155;28;20032;-55
2021/03/14 11:23:01;;;;;;;7.22;2.50;;;21.70;83.00;;;;;;5073274;28;20120;-56
2021/03/14 11:25:29;;;;;;;11.55;3.58;;;21.70;82.90;;;;;;5073179;28;20099;-57
2021/03/14 11:27:59;;;;;;;7.90;3.00;;;21.70;83.00;;;;;;5072722;28;20028;-55
2021/03/14 11:30:30;;;;;;;7.03;2.28;;;21.70;82.90;;;;;;5072716;28;20019;-56
2021/03/14 11:32:59;;;;;;;7.63;2.53;;;21.70;83.00;;;;;;5055815;28;20097;-59
2021/03/14 11:35:26;;;;;;;11.27;2.60;;;21.60;82.90;;;;;;5070446;28;20040;-60
2021/03/14 11:37:53;;;;;;;11.60;3.15;;;21.60;83.00;;;;;;5066372;28;20033;-55
2021/03/14 11:40:21;;;;;;;5.93;2.40;;;21.60;83.30;;;;;;5069868;28;20051;-56
2021/03/14 11:42:51;;;;;;;11.82;2.80;;;21.60;83.00;;;;;;5071037;28;20021;-56
2021/03/14 11:45:18;;;;;;;7.43;2.92;;;21.60;83.30;;;;;;5069391;28;20020;-56
2021/03/14 11:47:45;;;;;;;7.78;2.80;;;21.60;83.20;;;;;;5070070;28;20826;-60
2021/03/14 11:50:13;;;;;;;6.30;2.42;;;21.60;83.20;;;;;;5070095;28;20100;-59
2021/03/14 11:52:42;;;;;;;5.93;2.47;;;21.60;83.30;;;;;;5066055;28;20074;-63
2021/03/14 11:55:10;;;;;;;10.23;3.13;;;21.60;83.20;;;;;;5070456;28;20029;-64
2021/03/14 11:57:37;;;;;;;9.77;3.08;;;21.60;83.10;;;;;;5070185;28;20048;-70
2021/03/14 12:00:06;;;;;;;7.85;2.35;;;21.60;83.10;;;;;;5069761;28;20078;-59
2021/03/14 12:02:33;;;;;;;6.47;2.33;;;21.60;83.00;;;;;;5065460;28;20055;-62
2021/03/14 12:05:00;;;;;;;9.60;3.10;;;21.60;83.10;;;;;;5070099;28;20146;-61
2021/03/14 12:07:28;;;;;;;9.43;2.72;;;21.60;83.10;;;;;;5068796;28;20108;-58
2021/03/14 12:09:56;;;;;;;6.70;2.05;;;21.60;83.10;;;;;;5072130;28;20139;-55
2021/03/14 12:12:24;;;;;;;8.75;2.70;;;21.50;83.10;;;;;;5070665;28;20052;-59
2021/03/14 12:14:51;;;;;;;9.52;2.75;;;21.50;83.10;;;;;;5072000;28;20036;-57
2021/03/14 12:17:18;;;;;;;5.40;2.28;;;21.50;82.90;;;;;;5071229;28;20021;-61
2021/03/14 12:19:47;;;;;;;8.52;2.45;;;21.50;82.90;;;;;;5071959;28;20040;-54
2021/03/14 12:22:14;;;;;;;7.20;2.50;;;21.50;83.10;;;;;;5072068;28;20020;-57
2021/03/14 12:24:42;;;;;;;7.43;2.50;;;21.50;83.20;;;;;;5071692;28;20037;-61
2021/03/14 12:27:09;;;;;;;9.32;2.47;;;21.40;83.00;;;;;;5072445;28;20028;-57
2021/03/14 12:29:37;;;;;;;8.10;2.33;;;21.40;83.20;;;;;;5071475;28;20025;-52
2021/03/14 12:32:30;;;;;;;9.80;2.60;;;21.40;83.10;;;;;;5071584;28;20032;-63
2021/03/14 12:34:57;;;;;;;7.30;1.80;;;21.40;83.00;;;;;;5071927;28;20398;-66
2021/03/14 12:37:25;;;;;;;5.53;2.30;;;21.40;83.10;;;;;;5071297;28;20445;-65
2021/03/14 12:39:53;;;;;;;8.15;2.30;;;21.40;83.20;;;;;;5065557;28;20431;-56
2021/03/14 12:42:20;;;;;;;4.22;2.00;;;21.40;83.20;;;;;;5069593;28;20025;-61
2021/03/14 12:44:48;;;;;;;8.98;2.40;;;21.40;83.30;;;;;;5067473;28;20025;-59
2021/03/14 12:47:15;;;;;;;5.95;2.13;;;21.40;83.50;;;;;;5070319;28;20466;-56
2021/03/14 12:49:45;;;;;;;7.20;2.72;;;21.40;83.50;;;;;;5069396;28;20020;-60
2021/03/14 12:52:13;;;;;;;5.55;2.05;;;21.40;83.40;;;;;;5065832;28;20029;-59
2021/03/14 12:54:40;;;;;;;9.90;2.35;;;21.40;83.50;;;;;;5063487;28;20115;-59
2021/03/14 12:57:16;;;;;;;6.18;2.15;;;21.40;83.60;;;;;;5069163;28;20024;-59
2021/03/14 12:59:44;;;;;;;8.85;2.58;;;21.30;83.40;;;;;;5065528;28;20025;-58